sensor_id;sensor_type;location;lat;lon;timestamp;P1;durP1;ratioP1;P2;durP2;ratioP2
68657;SDS011;55639;53.480;-2.228;2022-08-19T00:01:35;1.50;;;0.70;;
68657;SDS011;55639;53.480;-2.228;2022-08-19T00:04:03;0.90;;;0.65;;
68657;SDS011;55639;53.480;-2.228;2022-08-19T00:06:33;1.27;;;0.75;;
68657;SDS011;55639;53.480;-2.228;2022-08-19T00:08:59;1.15;;;0.80;;
68657;SDS011;55639;53.480;-2.228;2022-08-19T00:11:25;1.38;;;0.70;;
68657;SDS011;55639;53.480;-2.228;2022-08-19T00:13:52;1.40;;;0.80;;
68657;SDS011;55639;53.480;-2.228;2022-08-19T00:16:19;1.33;;;0.88;;
68657;SDS011;55639;53.480;-2.228;2022-08-19T00:18:46;1.20;;;0.82;;
68657;SDS011;55639;53.480;-2.228;2022-08-19T00:21:13;1.73;;;0.90;;
68657;SDS011;55639;53.480;-2.228;2022-08-19T00:23:39;2.63;;;0.90;;
68657;SDS011;55639;53.480;-2.228;2022-08-19T00:26:05;1.25;;;0.63;;
68657;SDS011;55639;53.480;-2.228;2022-08-19T00:28:32;1.75;;;1.08;;
68657;SDS011;55639;53.480;-2.228;2022-08-19T00:30:58;2.25;;;1.00;;
68657;SDS011;55639;53.480;-2.228;2022-08-19T00:33:24;1.70;;;0.77;;
68657;SDS011;55639;53.480;-2.228;2022-08-19T00:35:50;2.17;;;1.00;;
68657;SDS011;55639;53.480;-2.228;2022-08-19T00:38:15;1.70;;;0.90;;
68657;SDS011;55639;53.480;-2.228;2022-08-19T00:40:44;2.03;;;0.82;;
68657;SDS011;55639;53.480;-2.228;2022-08-19T00:43:13;2.90;;;0.95;;
68657;SDS011;55639;53.480;-2.228;2022-08-19T00:45:43;1.83;;;0.80;;
68657;SDS011;55639;53.480;-2.228;2022-08-19T00:48:09;2.08;;;1.00;;
68657;SDS011;55639;53.480;-2.228;2022-08-19T00:50:35;1.30;;;0.73;;
68657;SDS011;55639;53.480;-2.228;2022-08-19T00:53:05;2.30;;;0.80;;
68657;SDS011;55639;53.480;-2.228;2022-08-19T00:55:31;2.15;;;0.98;;
68657;SDS011;55639;53.480;-2.228;2022-08-19T00:57:59;1.55;;;0.80;;
68657;SDS011;55639;53.480;-2.228;2022-08-19T01:00:33;1.83;;;0.90;;
68657;SDS011;55639;53.480;-2.228;2022-08-19T01:03:02;1.85;;;0.98;;
68657;SDS011;55639;53.480;-2.228;2022-08-19T01:05:31;1.80;;;0.80;;
68657;SDS011;55639;53.480;-2.228;2022-08-19T01:07:58;3.25;;;1.10;;
68657;SDS011;55639;53.480;-2.228;2022-08-19T01:10:27;2.47;;;1.00;;
68657;SDS011;55639;53.480;-2.228;2022-08-19T01:12:56;2.40;;;1.08;;
68657;SDS011;55639;53.480;-2.228;2022-08-19T01:15:24;2.47;;;0.90;;
68657;SDS011;55639;53.480;-2.228;2022-08-19T01:17:53;1.65;;;1.00;;
68657;SDS011;55639;53.480;-2.228;2022-08-19T01:20:20;2.13;;;1.10;;
68657;SDS011;55639;53.480;-2.228;2022-08-19T01:22:48;1.42;;;0.90;;
68657;SDS011;55639;53.480;-2.228;2022-08-19T01:25:18;1.95;;;1.05;;
68657;SDS011;55639;53.480;-2.228;2022-08-19T01:27:47;2.47;;;0.90;;
68657;SDS011;55639;53.480;-2.228;2022-08-19T01:30:19;3.13;;;1.00;;
68657;SDS011;55639;53.480;-2.228;2022-08-19T01:32:55;2.38;;;0.82;;
68657;SDS011;55639;53.480;-2.228;2022-08-19T01:35:22;2.33;;;1.00;;
68657;SDS011;55639;53.480;-2.228;2022-08-19T01:37:53;2.30;;;0.90;;
68657;SDS011;55639;53.480;-2.228;2022-08-19T01:40:26;2.35;;;1.13;;
68657;SDS011;55639;53.480;-2.228;2022-08-19T01:42:54;2.58;;;1.10;;
68657;SDS011;55639;53.480;-2.228;2022-08-19T01:45:20;2.60;;;1.10;;
68657;SDS011;55639;53.480;-2.228;2022-08-19T01:47:47;2.17;;;0.90;;
68657;SDS011;55639;53.480;-2.228;2022-08-19T01:50:13;2.75;;;1.23;;
68657;SDS011;55639;53.480;-2.228;2022-08-19T01:52:40;1.65;;;0.93;;
68657;SDS011;55639;53.480;-2.228;2022-08-19T01:55:08;1.33;;;0.82;;
68657;SDS011;55639;53.480;-2.228;2022-08-19T01:57:36;2.20;;;1.00;;
68657;SDS011;55639;53.480;-2.228;2022-08-19T02:00:05;3.70;;;1.10;;
68657;SDS011;55639;53.480;-2.228;2022-08-19T02:02:34;3.42;;;0.98;;
68657;SDS011;55639;53.480;-2.228;2022-08-19T02:04:59;2.10;;;1.08;;
68657;SDS011;55639;53.480;-2.228;2022-08-19T02:07:25;3.25;;;1.10;;
68657;SDS011;55639;53.480;-2.228;2022-08-19T02:09:52;1.40;;;0.82;;
68657;SDS011;55639;53.480;-2.228;2022-08-19T02:12:17;1.65;;;1.00;;
68657;SDS011;55639;53.480;-2.228;2022-08-19T02:14:43;2.58;;;0.80;;
68657;SDS011;55639;53.480;-2.228;2022-08-19T02:17:08;2.50;;;1.08;;
68657;SDS011;55639;53.480;-2.228;2022-08-19T02:19:34;2.70;;;1.15;;
68657;SDS011;55639;53.480;-2.228;2022-08-19T02:22:00;2.53;;;0.95;;
68657;SDS011;55639;53.480;-2.228;2022-08-19T02:24:26;1.88;;;1.00;;
68657;SDS011;55639;53.480;-2.228;2022-08-19T02:26:53;2.80;;;1.05;;
68657;SDS011;55639;53.480;-2.228;2022-08-19T02:29:18;2.22;;;1.15;;
68657;SDS011;55639;53.480;-2.228;2022-08-19T02:31:44;2.55;;;1.08;;
68657;SDS011;55639;53.480;-2.228;2022-08-19T02:34:10;2.40;;;1.00;;
68657;SDS011;55639;53.480;-2.228;2022-08-19T02:36:36;2.42;;;0.95;;
68657;SDS011;55639;53.480;-2.228;2022-08-19T02:39:02;1.92;;;1.10;;
68657;SDS011;55639;53.480;-2.228;2022-08-19T02:41:30;1.73;;;1.10;;
68657;SDS011;55639;53.480;-2.228;2022-08-19T02:43:58;2.17;;;1.15;;
68657;SDS011;55639;53.480;-2.228;2022-08-19T02:46:27;2.33;;;0.77;;
68657;SDS011;55639;53.480;-2.228;2022-08-19T02:48:55;2.33;;;0.90;;
68657;SDS011;55639;53.480;-2.228;2022-08-19T02:51:24;2.58;;;0.85;;
68657;SDS011;55639;53.480;-2.228;2022-08-19T02:53:53;2.78;;;1.08;;
68657;SDS011;55639;53.480;-2.228;2022-08-19T02:56:19;2.55;;;1.10;;
68657;SDS011;55639;53.480;-2.228;2022-08-19T02:58:46;2.63;;;1.05;;
68657;SDS011;55639;53.480;-2.228;2022-08-19T03:01:19;2.65;;;0.88;;
68657;SDS011;55639;53.480;-2.228;2022-08-19T03:03:50;2.47;;;0.98;;
68657;SDS011;55639;53.480;-2.228;2022-08-19T03:06:16;2.42;;;0.98;;
68657;SDS011;55639;53.480;-2.228;2022-08-19T03:08:43;3.60;;;1.25;;
68657;SDS011;55639;53.480;-2.228;2022-08-19T03:11:17;3.25;;;1.00;;
68657;SDS011;55639;53.480;-2.228;2022-08-19T03:13:45;3.00;;;1.20;;
68657;SDS011;55639;53.480;-2.228;2022-08-19T03:16:14;4.10;;;1.50;;
68657;SDS011;55639;53.480;-2.228;2022-08-19T03:18:41;3.38;;;1.08;;
68657;SDS011;55639;53.480;-2.228;2022-08-19T03:21:07;3.03;;;1.23;;
68657;SDS011;55639;53.480;-2.228;2022-08-19T03:23:33;2.88;;;1.10;;
68657;SDS011;55639;53.480;-2.228;2022-08-19T03:26:02;2.38;;;1.02;;
68657;SDS011;55639;53.480;-2.228;2022-08-19T03:28:30;2.92;;;1.20;;
68657;SDS011;55639;53.480;-2.228;2022-08-19T03:31:02;1.85;;;0.93;;
68657;SDS011;55639;53.480;-2.228;2022-08-19T03:33:33;2.78;;;1.13;;
68657;SDS011;55639;53.480;-2.228;2022-08-19T03:36:18;3.28;;;1.25;;
68657;SDS011;55639;53.480;-2.228;2022-08-19T03:38:49;2.80;;;1.00;;
68657;SDS011;55639;53.480;-2.228;2022-08-19T03:41:21;3.20;;;1.15;;
68657;SDS011;55639;53.480;-2.228;2022-08-19T03:43:49;2.28;;;1.00;;
68657;SDS011;55639;53.480;-2.228;2022-08-19T03:46:17;2.88;;;1.20;;
68657;SDS011;55639;53.480;-2.228;2022-08-19T03:48:48;2.83;;;1.08;;
68657;SDS011;55639;53.480;-2.228;2022-08-19T03:51:40;3.58;;;1.33;;
68657;SDS011;55639;53.480;-2.228;2022-08-19T03:54:06;1.83;;;1.00;;
68657;SDS011;55639;53.480;-2.228;2022-08-19T03:56:35;2.72;;;1.10;;
68657;SDS011;55639;53.480;-2.228;2022-08-19T03:59:02;2.53;;;1.08;;
68657;SDS011;55639;53.480;-2.228;2022-08-19T04:01:29;4.70;;;1.40;;
68657;SDS011;55639;53.480;-2.228;2022-08-19T04:03:55;2.80;;;1.02;;
68657;SDS011;55639;53.480;-2.228;2022-08-19T04:06:23;2.95;;;1.00;;
68657;SDS011;55639;53.480;-2.228;2022-08-19T04:08:51;2.88;;;1.20;;
68657;SDS011;55639;53.480;-2.228;2022-08-19T04:11:23;2.78;;;1.08;;
68657;SDS011;55639;53.480;-2.228;2022-08-19T04:13:50;2.05;;;0.88;;
68657;SDS011;55639;53.480;-2.228;2022-08-19T04:16:18;2.83;;;1.13;;
68657;SDS011;55639;53.480;-2.228;2022-08-19T04:18:45;3.30;;;1.20;;
68657;SDS011;55639;53.480;-2.228;2022-08-19T04:21:23;1.67;;;1.10;;
68657;SDS011;55639;53.480;-2.228;2022-08-19T04:23:50;2.97;;;1.20;;
68657;SDS011;55639;53.480;-2.228;2022-08-19T04:26:19;3.22;;;1.20;;
68657;SDS011;55639;53.480;-2.228;2022-08-19T04:28:47;2.30;;;0.90;;
68657;SDS011;55639;53.480;-2.228;2022-08-19T04:31:21;2.78;;;1.02;;
68657;SDS011;55639;53.480;-2.228;2022-08-19T04:33:50;3.50;;;1.27;;
68657;SDS011;55639;53.480;-2.228;2022-08-19T04:36:22;2.45;;;1.08;;
68657;SDS011;55639;53.480;-2.228;2022-08-19T04:38:50;2.10;;;0.80;;
68657;SDS011;55639;53.480;-2.228;2022-08-19T04:41:20;3.17;;;1.00;;
68657;SDS011;55639;53.480;-2.228;2022-08-19T04:44:04;2.88;;;1.08;;
68657;SDS011;55639;53.480;-2.228;2022-08-19T04:46:30;3.47;;;1.48;;
68657;SDS011;55639;53.480;-2.228;2022-08-19T04:48:57;4.40;;;1.17;;
68657;SDS011;55639;53.480;-2.228;2022-08-19T04:51:27;3.28;;;1.15;;
68657;SDS011;55639;53.480;-2.228;2022-08-19T04:53:53;2.80;;;0.98;;
68657;SDS011;55639;53.480;-2.228;2022-08-19T04:56:19;2.97;;;1.33;;
68657;SDS011;55639;53.480;-2.228;2022-08-19T04:58:47;2.25;;;1.10;;
68657;SDS011;55639;53.480;-2.228;2022-08-19T05:01:20;2.45;;;1.02;;
68657;SDS011;55639;53.480;-2.228;2022-08-19T05:03:48;2.80;;;1.05;;
68657;SDS011;55639;53.480;-2.228;2022-08-19T05:06:14;2.40;;;1.05;;
68657;SDS011;55639;53.480;-2.228;2022-08-19T05:08:42;3.08;;;1.30;;
68657;SDS011;55639;53.480;-2.228;2022-08-19T05:11:12;2.05;;;0.88;;
68657;SDS011;55639;53.480;-2.228;2022-08-19T05:13:39;2.70;;;1.45;;
68657;SDS011;55639;53.480;-2.228;2022-08-19T05:16:07;3.42;;;0.98;;
68657;SDS011;55639;53.480;-2.228;2022-08-19T05:18:32;2.63;;;1.10;;
68657;SDS011;55639;53.480;-2.228;2022-08-19T05:21:17;3.78;;;1.20;;
68657;SDS011;55639;53.480;-2.228;2022-08-19T05:24:04;3.80;;;1.35;;
68657;SDS011;55639;53.480;-2.228;2022-08-19T05:26:34;2.72;;;1.00;;
68657;SDS011;55639;53.480;-2.228;2022-08-19T05:29:01;2.63;;;0.88;;
68657;SDS011;55639;53.480;-2.228;2022-08-19T05:31:28;2.25;;;0.95;;
68657;SDS011;55639;53.480;-2.228;2022-08-19T05:33:54;2.17;;;1.05;;
68657;SDS011;55639;53.480;-2.228;2022-08-19T05:36:20;1.95;;;1.10;;
68657;SDS011;55639;53.480;-2.228;2022-08-19T05:38:46;2.97;;;1.10;;
68657;SDS011;55639;53.480;-2.228;2022-08-19T05:41:13;3.22;;;0.98;;
68657;SDS011;55639;53.480;-2.228;2022-08-19T05:43:40;1.67;;;0.85;;
68657;SDS011;55639;53.480;-2.228;2022-08-19T05:46:05;3.25;;;1.00;;
68657;SDS011;55639;53.480;-2.228;2022-08-19T05:48:33;2.95;;;1.13;;
68657;SDS011;55639;53.480;-2.228;2022-08-19T05:51:07;2.05;;;1.10;;
68657;SDS011;55639;53.480;-2.228;2022-08-19T05:53:33;2.25;;;0.95;;
68657;SDS011;55639;53.480;-2.228;2022-08-19T05:56:05;2.75;;;0.90;;
68657;SDS011;55639;53.480;-2.228;2022-08-19T06:00:58;2.50;;;0.93;;
68657;SDS011;55639;53.480;-2.228;2022-08-19T06:03:29;2.42;;;1.05;;
68657;SDS011;55639;53.480;-2.228;2022-08-19T06:05:56;3.50;;;1.30;;
68657;SDS011;55639;53.480;-2.228;2022-08-19T06:08:23;4.22;;;1.30;;
68657;SDS011;55639;53.480;-2.228;2022-08-19T06:10:49;3.47;;;1.10;;
68657;SDS011;55639;53.480;-2.228;2022-08-19T06:13:15;2.00;;;0.82;;
68657;SDS011;55639;53.480;-2.228;2022-08-19T06:15:40;4.50;;;1.20;;
68657;SDS011;55639;53.480;-2.228;2022-08-19T06:18:09;2.65;;;1.10;;
68657;SDS011;55639;53.480;-2.228;2022-08-19T06:20:34;2.67;;;0.80;;
68657;SDS011;55639;53.480;-2.228;2022-08-19T06:23:00;2.10;;;1.00;;
68657;SDS011;55639;53.480;-2.228;2022-08-19T06:25:26;2.80;;;1.00;;
68657;SDS011;55639;53.480;-2.228;2022-08-19T06:27:51;2.28;;;0.88;;
68657;SDS011;55639;53.480;-2.228;2022-08-19T06:30:17;2.78;;;0.90;;
68657;SDS011;55639;53.480;-2.228;2022-08-19T06:32:43;2.47;;;0.90;;
68657;SDS011;55639;53.480;-2.228;2022-08-19T06:35:09;2.42;;;1.20;;
68657;SDS011;55639;53.480;-2.228;2022-08-19T06:37:36;3.10;;;0.93;;
68657;SDS011;55639;53.480;-2.228;2022-08-19T06:40:02;2.53;;;1.17;;
68657;SDS011;55639;53.480;-2.228;2022-08-19T06:42:28;3.50;;;1.45;;
68657;SDS011;55639;53.480;-2.228;2022-08-19T06:44:54;2.35;;;1.00;;
68657;SDS011;55639;53.480;-2.228;2022-08-19T06:47:20;2.95;;;1.00;;
68657;SDS011;55639;53.480;-2.228;2022-08-19T06:49:47;3.25;;;1.10;;
68657;SDS011;55639;53.480;-2.228;2022-08-19T06:52:12;2.67;;;1.33;;
68657;SDS011;55639;53.480;-2.228;2022-08-19T06:54:39;2.65;;;1.13;;
68657;SDS011;55639;53.480;-2.228;2022-08-19T06:57:06;2.15;;;0.93;;
68657;SDS011;55639;53.480;-2.228;2022-08-19T06:59:34;2.70;;;1.10;;
68657;SDS011;55639;53.480;-2.228;2022-08-19T07:02:01;2.45;;;1.00;;
68657;SDS011;55639;53.480;-2.228;2022-08-19T07:04:31;2.70;;;1.02;;
68657;SDS011;55639;53.480;-2.228;2022-08-19T07:07:00;2.50;;;1.10;;
68657;SDS011;55639;53.480;-2.228;2022-08-19T07:09:31;1.73;;;0.87;;
68657;SDS011;55639;53.480;-2.228;2022-08-19T07:11:56;2.70;;;1.00;;
68657;SDS011;55639;53.480;-2.228;2022-08-19T07:14:23;2.10;;;1.00;;
68657;SDS011;55639;53.480;-2.228;2022-08-19T07:16:52;2.05;;;0.90;;
68657;SDS011;55639;53.480;-2.228;2022-08-19T07:19:23;2.22;;;1.00;;
68657;SDS011;55639;53.480;-2.228;2022-08-19T07:21:52;2.78;;;1.10;;
68657;SDS011;55639;53.480;-2.228;2022-08-19T07:24:20;2.97;;;0.98;;
68657;SDS011;55639;53.480;-2.228;2022-08-19T07:26:48;3.25;;;1.13;;
68657;SDS011;55639;53.480;-2.228;2022-08-19T07:29:16;2.35;;;0.82;;
68657;SDS011;55639;53.480;-2.228;2022-08-19T07:31:43;2.75;;;1.00;;
68657;SDS011;55639;53.480;-2.228;2022-08-19T07:34:09;2.63;;;1.23;;
68657;SDS011;55639;53.480;-2.228;2022-08-19T07:36:38;4.55;;;1.50;;
68657;SDS011;55639;53.480;-2.228;2022-08-19T07:39:07;2.22;;;0.90;;
68657;SDS011;55639;53.480;-2.228;2022-08-19T07:41:43;2.70;;;1.00;;
68657;SDS011;55639;53.480;-2.228;2022-08-19T07:44:11;2.10;;;1.10;;
68657;SDS011;55639;53.480;-2.228;2022-08-19T07:46:38;3.03;;;1.27;;
68657;SDS011;55639;53.480;-2.228;2022-08-19T07:49:07;5.85;;;1.48;;
68657;SDS011;55639;53.480;-2.228;2022-08-19T07:51:33;2.67;;;1.30;;
68657;SDS011;55639;53.480;-2.228;2022-08-19T07:53:59;2.65;;;1.10;;
68657;SDS011;55639;53.480;-2.228;2022-08-19T07:56:25;2.75;;;1.13;;
68657;SDS011;55639;53.480;-2.228;2022-08-19T07:58:51;2.20;;;1.02;;
68657;SDS011;55639;53.480;-2.228;2022-08-19T08:01:19;2.45;;;1.05;;
68657;SDS011;55639;53.480;-2.228;2022-08-19T08:03:48;3.88;;;1.20;;
68657;SDS011;55639;53.480;-2.228;2022-08-19T08:06:33;3.00;;;0.98;;
68657;SDS011;55639;53.480;-2.228;2022-08-19T08:09:19;3.50;;;1.10;;
68657;SDS011;55639;53.480;-2.228;2022-08-19T08:11:55;2.53;;;1.00;;
68657;SDS011;55639;53.480;-2.228;2022-08-19T08:14:27;2.85;;;1.10;;
68657;SDS011;55639;53.480;-2.228;2022-08-19T08:16:55;2.42;;;1.10;;
68657;SDS011;55639;53.480;-2.228;2022-08-19T08:19:22;3.78;;;1.17;;
68657;SDS011;55639;53.480;-2.228;2022-08-19T08:21:49;3.20;;;1.10;;
68657;SDS011;55639;53.480;-2.228;2022-08-19T08:24:15;3.50;;;1.33;;
68657;SDS011;55639;53.480;-2.228;2022-08-19T08:26:42;2.97;;;1.30;;
68657;SDS011;55639;53.480;-2.228;2022-08-19T08:29:09;3.55;;;1.10;;
68657;SDS011;55639;53.480;-2.228;2022-08-19T08:31:38;3.13;;;1.10;;
68657;SDS011;55639;53.480;-2.228;2022-08-19T08:34:05;3.72;;;1.20;;
68657;SDS011;55639;53.480;-2.228;2022-08-19T08:36:32;3.70;;;1.30;;
68657;SDS011;55639;53.480;-2.228;2022-08-19T08:38:59;4.60;;;1.40;;
68657;SDS011;55639;53.480;-2.228;2022-08-19T08:41:31;2.67;;;1.25;;
68657;SDS011;55639;53.480;-2.228;2022-08-19T08:44:06;3.97;;;1.40;;
68657;SDS011;55639;53.480;-2.228;2022-08-19T08:50:12;3.33;;;1.30;;
68657;SDS011;55639;53.480;-2.228;2022-08-19T08:52:18;3.60;;;1.25;;
68657;SDS011;55639;53.480;-2.228;2022-08-19T08:54:51;4.78;;;1.60;;
68657;SDS011;55639;53.480;-2.228;2022-08-19T08:57:24;4.30;;;1.02;;
68657;SDS011;55639;53.480;-2.228;2022-08-19T09:00:04;3.60;;;1.40;;
68657;SDS011;55639;53.480;-2.228;2022-08-19T09:02:32;3.33;;;1.20;;
68657;SDS011;55639;53.480;-2.228;2022-08-19T09:04:57;3.67;;;1.25;;
68657;SDS011;55639;53.480;-2.228;2022-08-19T09:10:21;3.42;;;1.40;;
68657;SDS011;55639;53.480;-2.228;2022-08-19T09:15:32;2.97;;;1.17;;
68657;SDS011;55639;53.480;-2.228;2022-08-19T09:18:03;3.85;;;1.42;;
68657;SDS011;55639;53.480;-2.228;2022-08-19T09:20:30;4.40;;;1.90;;
68657;SDS011;55639;53.480;-2.228;2022-08-19T09:22:56;6.63;;;1.70;;
68657;SDS011;55639;53.480;-2.228;2022-08-19T09:25:23;4.70;;;1.58;;
68657;SDS011;55639;53.480;-2.228;2022-08-19T09:27:50;7.10;;;1.70;;
68657;SDS011;55639;53.480;-2.228;2022-08-19T09:30:26;6.47;;;1.55;;
68657;SDS011;55639;53.480;-2.228;2022-08-19T09:32:53;5.75;;;1.55;;
68657;SDS011;55639;53.480;-2.228;2022-08-19T09:35:21;2.85;;;1.30;;
68657;SDS011;55639;53.480;-2.228;2022-08-19T09:37:48;6.13;;;1.60;;
68657;SDS011;55639;53.480;-2.228;2022-08-19T09:40:14;5.25;;;1.73;;
68657;SDS011;55639;53.480;-2.228;2022-08-19T09:42:41;5.45;;;1.80;;
68657;SDS011;55639;53.480;-2.228;2022-08-19T09:45:12;5.10;;;1.65;;
68657;SDS011;55639;53.480;-2.228;2022-08-19T09:47:43;3.78;;;1.63;;
68657;SDS011;55639;53.480;-2.228;2022-08-19T09:50:09;5.43;;;1.70;;
68657;SDS011;55639;53.480;-2.228;2022-08-19T09:52:36;3.05;;;1.25;;
68657;SDS011;55639;53.480;-2.228;2022-08-19T09:55:06;4.65;;;1.35;;
68657;SDS011;55639;53.480;-2.228;2022-08-19T09:57:33;3.47;;;1.40;;
68657;SDS011;55639;53.480;-2.228;2022-08-19T09:59:59;4.80;;;1.40;;
68657;SDS011;55639;53.480;-2.228;2022-08-19T10:02:25;4.05;;;1.50;;
68657;SDS011;55639;53.480;-2.228;2022-08-19T10:04:51;5.80;;;1.67;;
68657;SDS011;55639;53.480;-2.228;2022-08-19T10:07:36;6.32;;;1.45;;
68657;SDS011;55639;53.480;-2.228;2022-08-19T10:10:06;6.75;;;1.85;;
68657;SDS011;55639;53.480;-2.228;2022-08-19T10:12:32;6.80;;;1.48;;
68657;SDS011;55639;53.480;-2.228;2022-08-19T10:14:59;7.82;;;1.42;;
68657;SDS011;55639;53.480;-2.228;2022-08-19T10:17:25;7.38;;;1.70;;
68657;SDS011;55639;53.480;-2.228;2022-08-19T10:19:51;5.63;;;1.80;;
68657;SDS011;55639;53.480;-2.228;2022-08-19T10:22:17;4.70;;;1.83;;
68657;SDS011;55639;53.480;-2.228;2022-08-19T10:24:43;5.70;;;1.55;;
68657;SDS011;55639;53.480;-2.228;2022-08-19T10:27:10;5.72;;;1.45;;
68657;SDS011;55639;53.480;-2.228;2022-08-19T10:29:38;3.88;;;1.35;;
68657;SDS011;55639;53.480;-2.228;2022-08-19T10:32:04;5.65;;;1.52;;
68657;SDS011;55639;53.480;-2.228;2022-08-19T10:34:33;5.38;;;1.48;;
68657;SDS011;55639;53.480;-2.228;2022-08-19T10:37:01;4.95;;;1.58;;
68657;SDS011;55639;53.480;-2.228;2022-08-19T10:39:30;4.93;;;1.23;;
68657;SDS011;55639;53.480;-2.228;2022-08-19T10:41:57;3.85;;;1.23;;
68657;SDS011;55639;53.480;-2.228;2022-08-19T10:44:23;4.90;;;1.02;;
68657;SDS011;55639;53.480;-2.228;2022-08-19T10:46:49;4.82;;;1.45;;
68657;SDS011;55639;53.480;-2.228;2022-08-19T10:49:16;4.88;;;1.40;;
68657;SDS011;55639;53.480;-2.228;2022-08-19T10:51:43;4.90;;;1.30;;
68657;SDS011;55639;53.480;-2.228;2022-08-19T10:54:28;4.82;;;1.38;;
68657;SDS011;55639;53.480;-2.228;2022-08-19T10:57:12;3.92;;;1.55;;
68657;SDS011;55639;53.480;-2.228;2022-08-19T10:59:38;4.40;;;1.20;;
68657;SDS011;55639;53.480;-2.228;2022-08-19T11:02:05;3.67;;;1.35;;
68657;SDS011;55639;53.480;-2.228;2022-08-19T11:04:35;5.82;;;1.60;;
68657;SDS011;55639;53.480;-2.228;2022-08-19T11:07:04;4.18;;;1.20;;
68657;SDS011;55639;53.480;-2.228;2022-08-19T11:09:30;5.22;;;1.40;;
68657;SDS011;55639;53.480;-2.228;2022-08-19T11:11:56;4.72;;;1.33;;
68657;SDS011;55639;53.480;-2.228;2022-08-19T11:14:22;4.22;;;1.17;;
68657;SDS011;55639;53.480;-2.228;2022-08-19T11:16:49;4.30;;;1.10;;
68657;SDS011;55639;53.480;-2.228;2022-08-19T11:19:17;5.03;;;1.17;;
68657;SDS011;55639;53.480;-2.228;2022-08-19T11:21:47;4.20;;;1.10;;
68657;SDS011;55639;53.480;-2.228;2022-08-19T11:24:15;4.20;;;1.17;;
68657;SDS011;55639;53.480;-2.228;2022-08-19T11:26:46;3.42;;;1.20;;
68657;SDS011;55639;53.480;-2.228;2022-08-19T11:29:14;2.35;;;1.00;;
68657;SDS011;55639;53.480;-2.228;2022-08-19T11:31:42;3.08;;;0.90;;
68657;SDS011;55639;53.480;-2.228;2022-08-19T11:34:11;4.00;;;1.20;;
68657;SDS011;55639;53.480;-2.228;2022-08-19T11:36:40;2.70;;;1.20;;
68657;SDS011;55639;53.480;-2.228;2022-08-19T11:39:07;3.22;;;1.10;;
68657;SDS011;55639;53.480;-2.228;2022-08-19T11:41:34;3.67;;;1.10;;
68657;SDS011;55639;53.480;-2.228;2022-08-19T11:44:00;2.40;;;0.93;;
68657;SDS011;55639;53.480;-2.228;2022-08-19T11:46:28;3.53;;;1.08;;
68657;SDS011;55639;53.480;-2.228;2022-08-19T11:48:55;3.58;;;1.10;;
68657;SDS011;55639;53.480;-2.228;2022-08-19T11:51:25;3.60;;;0.93;;
68657;SDS011;55639;53.480;-2.228;2022-08-19T11:53:52;4.03;;;1.00;;
68657;SDS011;55639;53.480;-2.228;2022-08-19T11:56:19;3.22;;;1.10;;
68657;SDS011;55639;53.480;-2.228;2022-08-19T11:58:45;2.08;;;0.98;;
68657;SDS011;55639;53.480;-2.228;2022-08-19T12:01:12;1.98;;;1.00;;
68657;SDS011;55639;53.480;-2.228;2022-08-19T12:03:41;6.18;;;1.10;;
68657;SDS011;55639;53.480;-2.228;2022-08-19T12:06:09;6.03;;;1.15;;
68657;SDS011;55639;53.480;-2.228;2022-08-19T12:08:41;3.80;;;1.07;;
68657;SDS011;55639;53.480;-2.228;2022-08-19T12:11:08;4.50;;;1.20;;
68657;SDS011;55639;53.480;-2.228;2022-08-19T12:13:35;3.05;;;0.93;;
68657;SDS011;55639;53.480;-2.228;2022-08-19T12:16:09;3.83;;;1.00;;
68657;SDS011;55639;53.480;-2.228;2022-08-19T12:18:37;5.75;;;1.33;;
68657;SDS011;55639;53.480;-2.228;2022-08-19T12:21:04;2.80;;;1.05;;
68657;SDS011;55639;53.480;-2.228;2022-08-19T12:23:29;5.18;;;1.30;;
68657;SDS011;55639;53.480;-2.228;2022-08-19T12:25:55;4.50;;;1.10;;
68657;SDS011;55639;53.480;-2.228;2022-08-19T12:28:23;2.42;;;1.00;;
68657;SDS011;55639;53.480;-2.228;2022-08-19T12:30:49;3.10;;;1.02;;
68657;SDS011;55639;53.480;-2.228;2022-08-19T12:33:16;4.28;;;0.85;;
68657;SDS011;55639;53.480;-2.228;2022-08-19T12:35:43;3.97;;;0.77;;
68657;SDS011;55639;53.480;-2.228;2022-08-19T12:38:10;2.22;;;1.10;;
68657;SDS011;55639;53.480;-2.228;2022-08-19T12:40:37;2.13;;;0.75;;
68657;SDS011;55639;53.480;-2.228;2022-08-19T12:43:04;2.33;;;0.70;;
68657;SDS011;55639;53.480;-2.228;2022-08-19T12:45:30;3.55;;;0.95;;
68657;SDS011;55639;53.480;-2.228;2022-08-19T12:47:56;4.22;;;1.00;;
68657;SDS011;55639;53.480;-2.228;2022-08-19T12:50:22;2.28;;;0.80;;
68657;SDS011;55639;53.480;-2.228;2022-08-19T12:52:48;2.58;;;0.80;;
68657;SDS011;55639;53.480;-2.228;2022-08-19T12:55:14;4.30;;;1.02;;
68657;SDS011;55639;53.480;-2.228;2022-08-19T12:57:40;2.30;;;0.77;;
68657;SDS011;55639;53.480;-2.228;2022-08-19T13:00:07;3.10;;;0.80;;
68657;SDS011;55639;53.480;-2.228;2022-08-19T13:02:36;2.35;;;1.02;;
68657;SDS011;55639;53.480;-2.228;2022-08-19T13:05:03;2.35;;;0.82;;
68657;SDS011;55639;53.480;-2.228;2022-08-19T13:07:31;2.42;;;0.82;;
68657;SDS011;55639;53.480;-2.228;2022-08-19T13:09:57;3.03;;;0.90;;
68657;SDS011;55639;53.480;-2.228;2022-08-19T13:12:23;2.33;;;1.00;;
68657;SDS011;55639;53.480;-2.228;2022-08-19T13:14:51;2.42;;;0.80;;
68657;SDS011;55639;53.480;-2.228;2022-08-19T13:17:17;3.65;;;0.90;;
68657;SDS011;55639;53.480;-2.228;2022-08-19T13:19:43;3.55;;;0.82;;
68657;SDS011;55639;53.480;-2.228;2022-08-19T13:22:09;2.67;;;0.73;;
68657;SDS011;55639;53.480;-2.228;2022-08-19T13:24:34;2.50;;;0.68;;
68657;SDS011;55639;53.480;-2.228;2022-08-19T13:27:01;1.88;;;0.82;;
68657;SDS011;55639;53.480;-2.228;2022-08-19T13:29:27;1.05;;;0.47;;
68657;SDS011;55639;53.480;-2.228;2022-08-19T13:32:11;2.85;;;0.80;;
68657;SDS011;55639;53.480;-2.228;2022-08-19T13:34:55;1.25;;;0.60;;
68657;SDS011;55639;53.480;-2.228;2022-08-19T13:37:21;3.10;;;0.80;;
68657;SDS011;55639;53.480;-2.228;2022-08-19T13:40:06;2.05;;;0.98;;
68657;SDS011;55639;53.480;-2.228;2022-08-19T13:42:38;2.05;;;0.73;;
68657;SDS011;55639;53.480;-2.228;2022-08-19T13:45:04;1.73;;;0.75;;
68657;SDS011;55639;53.480;-2.228;2022-08-19T13:47:31;1.50;;;0.68;;
68657;SDS011;55639;53.480;-2.228;2022-08-19T13:49:59;1.30;;;0.60;;
68657;SDS011;55639;53.480;-2.228;2022-08-19T13:52:25;2.25;;;0.82;;
68657;SDS011;55639;53.480;-2.228;2022-08-19T13:54:51;2.25;;;0.68;;
68657;SDS011;55639;53.480;-2.228;2022-08-19T13:57:16;1.90;;;0.80;;
68657;SDS011;55639;53.480;-2.228;2022-08-19T13:59:42;1.50;;;0.50;;
68657;SDS011;55639;53.480;-2.228;2022-08-19T14:02:08;1.98;;;0.68;;
68657;SDS011;55639;53.480;-2.228;2022-08-19T14:04:35;1.70;;;0.70;;
68657;SDS011;55639;53.480;-2.228;2022-08-19T14:07:02;1.48;;;0.60;;
68657;SDS011;55639;53.480;-2.228;2022-08-19T14:09:28;1.73;;;0.70;;
68657;SDS011;55639;53.480;-2.228;2022-08-19T14:11:54;1.13;;;0.57;;
68657;SDS011;55639;53.480;-2.228;2022-08-19T14:14:20;1.42;;;0.50;;
68657;SDS011;55639;53.480;-2.228;2022-08-19T14:16:46;1.20;;;0.50;;
68657;SDS011;55639;53.480;-2.228;2022-08-19T14:19:12;1.42;;;0.60;;
68657;SDS011;55639;53.480;-2.228;2022-08-19T14:21:38;2.08;;;0.85;;
68657;SDS011;55639;53.480;-2.228;2022-08-19T14:24:06;2.00;;;0.80;;
68657;SDS011;55639;53.480;-2.228;2022-08-19T14:26:33;3.22;;;0.70;;
68657;SDS011;55639;53.480;-2.228;2022-08-19T14:28:58;1.35;;;0.50;;
68657;SDS011;55639;53.480;-2.228;2022-08-19T14:31:26;1.55;;;0.77;;
68657;SDS011;55639;53.480;-2.228;2022-08-19T14:33:51;1.95;;;0.73;;
68657;SDS011;55639;53.480;-2.228;2022-08-19T14:36:18;1.83;;;0.57;;
68657;SDS011;55639;53.480;-2.228;2022-08-19T14:38:46;2.22;;;0.60;;
68657;SDS011;55639;53.480;-2.228;2022-08-19T14:41:16;2.63;;;0.70;;
68657;SDS011;55639;53.480;-2.228;2022-08-19T14:43:44;2.05;;;0.47;;
68657;SDS011;55639;53.480;-2.228;2022-08-19T14:46:14;6.30;;;1.00;;
68657;SDS011;55639;53.480;-2.228;2022-08-19T14:48:40;4.97;;;1.30;;
68657;SDS011;55639;53.480;-2.228;2022-08-19T14:51:07;18.52;;;1.40;;